sensor_id;sensor_type;location;lat;lon;timestamp;pressure;altitude;pressure_sealevel;temperature
76541;BMP280;65385;55.772;37.658;2023-06-14T00:00:21;100201.03;;;13.07
76541;BMP280;65385;55.772;37.658;2023-06-14T00:01:23;100201.31;;;13.05
76541;BMP280;65385;55.772;37.658;2023-06-14T00:02:23;100201.84;;;13.02
76541;BMP280;65385;55.772;37.658;2023-06-14T00:03:24;100194.22;;;13.01
76541;BMP280;65385;55.772;37.658;2023-06-14T00:04:24;100192.91;;;12.98
76541;BMP280;65385;55.772;37.658;2023-06-14T00:05:25;100192.66;;;12.95
76541;BMP280;65385;55.772;37.658;2023-06-14T00:06:28;100201.03;;;12.92
76541;BMP280;65385;55.772;37.658;2023-06-14T00:07:36;100190.03;;;12.90
76541;BMP280;65385;55.772;37.658;2023-06-14T00:08:37;100191.31;;;12.87
76541;BMP280;65385;55.772;37.658;2023-06-14T00:09:38;100195.78;;;12.87
76541;BMP280;65385;55.772;37.658;2023-06-14T00:10:38;100192.63;;;12.84
76541;BMP280;65385;55.772;37.658;2023-06-14T00:11:41;100199.22;;;12.82
76541;BMP280;65385;55.772;37.658;2023-06-14T00:12:42;100193.66;;;12.78
76541;BMP280;65385;55.772;37.658;2023-06-14T00:13:43;100199.47;;;12.75
76541;BMP280;65385;55.772;37.658;2023-06-14T00:14:43;100193.69;;;12.73
76541;BMP280;65385;55.772;37.658;2023-06-14T00:15:45;100193.69;;;12.68
76541;BMP280;65385;55.772;37.658;2023-06-14T00:16:46;100190.50;;;12.66
76541;BMP280;65385;55.772;37.658;2023-06-14T00:17:48;100201.53;;;12.63
76541;BMP280;65385;55.772;37.658;2023-06-14T00:18:49;100191.56;;;12.60
76541;BMP280;65385;55.772;37.658;2023-06-14T00:19:52;100198.88;;;12.58
76541;BMP280;65385;55.772;37.658;2023-06-14T00:20:53;100197.59;;;12.56
76541;BMP280;65385;55.772;37.658;2023-06-14T00:21:53;100195.22;;;12.54
76541;BMP280;65385;55.772;37.658;2023-06-14T00:22:54;100200.97;;;12.51
76541;BMP280;65385;55.772;37.658;2023-06-14T00:24:00;100203.09;;;12.49
76541;BMP280;65385;55.772;37.658;2023-06-14T00:25:01;100205.19;;;12.47
76541;BMP280;65385;55.772;37.658;2023-06-14T00:26:01;100199.94;;;12.47
76541;BMP280;65385;55.772;37.658;2023-06-14T00:27:02;100206.47;;;12.45
76541;BMP280;65385;55.772;37.658;2023-06-14T00:28:03;100201.47;;;12.43
76541;BMP280;65385;55.772;37.658;2023-06-14T00:29:04;100194.66;;;12.42
76541;BMP280;65385;55.772;37.658;2023-06-14T00:30:05;100197.53;;;12.41
76541;BMP280;65385;55.772;37.658;2023-06-14T00:31:08;100198.31;;;12.41
76541;BMP280;65385;55.772;37.658;2023-06-14T00:32:10;100196.22;;;12.38
76541;BMP280;65385;55.772;37.658;2023-06-14T00:33:10;100186.50;;;12.33
76541;BMP280;65385;55.772;37.658;2023-06-14T00:34:11;100194.91;;;12.36
76541;BMP280;65385;55.772;37.658;2023-06-14T00:35:11;100195.97;;;12.40
76541;BMP280;65385;55.772;37.658;2023-06-14T00:36:12;100202.00;;;12.40
76541;BMP280;65385;55.772;37.658;2023-06-14T00:37:13;100193.59;;;12.38
76541;BMP280;65385;55.772;37.658;2023-06-14T00:38:13;100200.44;;;12.39
76541;BMP280;65385;55.772;37.658;2023-06-14T00:39:14;100195.44;;;12.38
76541;BMP280;65385;55.772;37.658;2023-06-14T00:40:15;100199.88;;;12.37
76541;BMP280;65385;55.772;37.658;2023-06-14T00:41:16;100193.59;;;12.38
76541;BMP280;65385;55.772;37.658;2023-06-14T00:42:27;100196.47;;;12.37
76541;BMP280;65385;55.772;37.658;2023-06-14T00:43:28;100195.69;;;12.36
76541;BMP280;65385;55.772;37.658;2023-06-14T00:44:28;100191.50;;;12.35
76541;BMP280;65385;55.772;37.658;2023-06-14T00:45:29;100195.69;;;12.36
76541;BMP280;65385;55.772;37.658;2023-06-14T00:46:31;100196.19;;;12.33
76541;BMP280;65385;55.772;37.658;2023-06-14T00:47:32;100197.78;;;12.34
76541;BMP280;65385;55.772;37.658;2023-06-14T00:48:34;100199.88;;;12.37
76541;BMP280;65385;55.772;37.658;2023-06-14T00:49:35;100196.75;;;12.35
76541;BMP280;65385;55.772;37.658;2023-06-14T00:50:36;100197.53;;;12.36
76541;BMP280;65385;55.772;37.658;2023-06-14T00:51:38;100195.69;;;12.36
76541;BMP280;65385;55.772;37.658;2023-06-14T00:52:39;100200.16;;;12.36
76541;BMP280;65385;55.772;37.658;2023-06-14T00:53:40;100194.63;;;12.37
76541;BMP280;65385;55.772;37.658;2023-06-14T00:54:46;100197.81;;;12.39
76541;BMP280;65385;55.772;37.658;2023-06-14T00:55:47;100196.75;;;12.40
76541;BMP280;65385;55.772;37.658;2023-06-14T00:56:51;100205.16;;;12.42
76541;BMP280;65385;55.772;37.658;2023-06-14T00:57:54;100200.19;;;12.46
76541;BMP280;65385;55.772;37.658;2023-06-14T00:58:56;100196.25;;;12.48
76541;BMP280;65385;55.772;37.658;2023-06-14T00:59:58;100195.47;;;12.53
76541;BMP280;65385;55.772;37.658;2023-06-14T01:00:59;100198.09;;;12.58
76541;BMP280;65385;55.772;37.658;2023-06-14T01:01:59;100204.69;;;12.65
76541;BMP280;65385;55.772;37.658;2023-06-14T01:03:01;100208.63;;;12.73
76541;BMP280;65385;55.772;37.658;2023-06-14T01:04:03;100191.84;;;12.79
76541;BMP280;65385;55.772;37.658;2023-06-14T01:05:05;100195.53;;;12.88
76541;BMP280;65385;55.772;37.658;2023-06-14T01:06:22;100198.44;;;12.97
76541;BMP280;65385;55.772;37.658;2023-06-14T01:07:40;100191.84;;;13.04
76541;BMP280;65385;55.772;37.658;2023-06-14T01:09:01;100186.84;;;13.18
76541;BMP280;65385;55.772;37.658;2023-06-14T01:11:11;100191.03;;;13.44
76541;BMP280;65385;55.772;37.658;2023-06-14T01:12:41;100188.34;;;13.64
76541;BMP280;65385;55.772;37.658;2023-06-14T01:13:46;100190.94;;;13.79
76541;BMP280;65385;55.772;37.658;2023-06-14T01:14:48;100190.88;;;13.95
76541;BMP280;65385;55.772;37.658;2023-06-14T01:15:50;100188.19;;;14.10
76541;BMP280;65385;55.772;37.658;2023-06-14T01:16:52;100190.72;;;14.25
76541;BMP280;65385;55.772;37.658;2023-06-14T01:17:55;100188.81;;;14.41
76541;BMP280;65385;55.772;37.658;2023-06-14T01:19:04;100190.81;;;14.54
76541;BMP280;65385;55.772;37.658;2023-06-14T01:20:07;100191.53;;;14.69
76541;BMP280;65385;55.772;37.658;2023-06-14T01:21:22;100180.84;;;14.84
76541;BMP280;65385;55.772;37.658;2023-06-14T01:22:27;100184.94;;;15.01
76541;BMP280;65385;55.772;37.658;2023-06-14T01:23:30;100189.03;;;15.12
76541;BMP280;65385;55.772;37.658;2023-06-14T01:24:33;100182.84;;;15.26
76541;BMP280;65385;55.772;37.658;2023-06-14T01:25:35;100185.31;;;15.41
76541;BMP280;65385;55.772;37.658;2023-06-14T01:26:38;100187.78;;;15.57
76541;BMP280;65385;55.772;37.658;2023-06-14T01:27:39;100181.03;;;15.69
76541;BMP280;65385;55.772;37.658;2023-06-14T01:28:39;100187.19;;;15.83
76541;BMP280;65385;55.772;37.658;2023-06-14T01:29:40;100189.44;;;15.95
76541;BMP280;65385;55.772;37.658;2023-06-14T01:30:51;100191.09;;;16.10
76541;BMP280;65385;55.772;37.658;2023-06-14T01:31:54;100191.97;;;16.24
76541;BMP280;65385;55.772;37.658;2023-06-14T01:32:56;100195.72;;;16.36
76541;BMP280;65385;55.772;37.658;2023-06-14T01:33:57;100202.06;;;16.54
76541;BMP280;65385;55.772;37.658;2023-06-14T01:34:58;100191.25;;;16.69
76541;BMP280;65385;55.772;37.658;2023-06-14T01:36:02;100197.78;;;16.90
76541;BMP280;65385;55.772;37.658;2023-06-14T01:37:06;100189.66;;;17.00
76541;BMP280;65385;55.772;37.658;2023-06-14T01:38:07;100189.59;;;17.19
76541;BMP280;65385;55.772;37.658;2023-06-14T01:39:10;100189.59;;;17.33
76541;BMP280;65385;55.772;37.658;2023-06-14T01:40:14;100174.63;;;17.42
76541;BMP280;65385;55.772;37.658;2023-06-14T01:41:16;100192.13;;;17.65
76541;BMP280;65385;55.772;37.658;2023-06-14T01:42:19;100184.47;;;17.77
76541;BMP280;65385;55.772;37.658;2023-06-14T01:43:21;100188.34;;;17.93
76541;BMP280;65385;55.772;37.658;2023-06-14T01:44:23;100177.53;;;18.03
76541;BMP280;65385;55.772;37.658;2023-06-14T01:45:24;100182.50;;;18.18
76541;BMP280;65385;55.772;37.658;2023-06-14T01:46:25;100193.81;;;18.33
76541;BMP280;65385;55.772;37.658;2023-06-14T01:47:30;100176.91;;;18.42
76541;BMP280;65385;55.772;37.658;2023-06-14T01:48:31;100187.91;;;18.58
76541;BMP280;65385;55.772;37.658;2023-06-14T01:49:35;100187.53;;;18.73
76541;BMP280;65385;55.772;37.658;2023-06-14T01:50:36;100191.66;;;18.88
76541;BMP280;65385;55.772;37.658;2023-06-14T01:51:38;100197.31;;;19.03
76541;BMP280;65385;55.772;37.658;2023-06-14T01:52:39;100190.97;;;19.13
76541;BMP280;65385;55.772;37.658;2023-06-14T01:53:40;100181.19;;;19.22
76541;BMP280;65385;55.772;37.658;2023-06-14T01:54:44;100181.06;;;19.35
76541;BMP280;65385;55.772;37.658;2023-06-14T01:55:45;100188.41;;;19.56
76541;BMP280;65385;55.772;37.658;2023-06-14T01:56:48;100196.41;;;19.73
76541;BMP280;65385;55.772;37.658;2023-06-14T01:57:49;100192.38;;;19.84
76541;BMP280;65385;55.772;37.658;2023-06-14T01:58:50;100192.22;;;19.97
76541;BMP280;65385;55.772;37.658;2023-06-14T01:59:52;100187.84;;;20.10
76541;BMP280;65385;55.772;37.658;2023-06-14T02:00:53;100190.63;;;20.22
76541;BMP280;65385;55.772;37.658;2023-06-14T02:01:55;100191.84;;;20.33
76541;BMP280;65385;55.772;37.658;2023-06-14T02:02:56;100190.75;;;20.43
76541;BMP280;65385;55.772;37.658;2023-06-14T02:03:57;100189.66;;;20.52
76541;BMP280;65385;55.772;37.658;2023-06-14T02:04:58;100188.97;;;20.64
76541;BMP280;65385;55.772;37.658;2023-06-14T02:05:58;100190.53;;;20.74
76541;BMP280;65385;55.772;37.658;2023-06-14T02:06:59;100182.66;;;20.86
76541;BMP280;65385;55.772;37.658;2023-06-14T02:08:00;100191.06;;;20.96
76541;BMP280;65385;55.772;37.658;2023-06-14T02:09:01;100190.06;;;21.09
76541;BMP280;65385;55.772;37.658;2023-06-14T02:10:04;100186.84;;;21.24
76541;BMP280;65385;55.772;37.658;2023-06-14T02:11:08;100188.50;;;21.58
76541;BMP280;65385;55.772;37.658;2023-06-14T02:12:09;100186.16;;;21.57
76541;BMP280;65385;55.772;37.658;2023-06-14T02:13:11;100183.75;;;21.64
76541;BMP280;65385;55.772;37.658;2023-06-14T02:14:13;100180.22;;;21.72
76541;BMP280;65385;55.772;37.658;2023-06-14T02:15:15;100183.41;;;21.86
76541;BMP280;65385;55.772;37.658;2023-06-14T02:16:19;100179.94;;;22.18
76541;BMP280;65385;55.772;37.658;2023-06-14T02:17:22;100174.19;;;22.16
76541;BMP280;65385;55.772;37.658;2023-06-14T02:18:23;100178.19;;;22.22
76541;BMP280;65385;55.772;37.658;2023-06-14T02:19:24;100180.75;;;22.31
76541;BMP280;65385;55.772;37.658;2023-06-14T02:20:25;100175.44;;;22.31
76541;BMP280;65385;55.772;37.658;2023-06-14T02:21:26;100180.34;;;22.41
76541;BMP280;65385;55.772;37.658;2023-06-14T02:22:26;100174.78;;;22.46
76541;BMP280;65385;55.772;37.658;2023-06-14T02:23:27;100170.78;;;22.52
76541;BMP280;65385;55.772;37.658;2023-06-14T02:24:28;100183.16;;;22.57
76541;BMP280;65385;55.772;37.658;2023-06-14T02:25:28;100169.50;;;22.58
76541;BMP280;65385;55.772;37.658;2023-06-14T02:26:29;100172.34;;;22.53
76541;BMP280;65385;55.772;37.658;2023-06-14T02:27:30;100175.94;;;22.57
76541;BMP280;65385;55.772;37.658;2023-06-14T02:28:31;100176.38;;;22.59
76541;BMP280;65385;55.772;37.658;2023-06-14T02:29:32;100177.81;;;22.69
76541;BMP280;65385;55.772;37.658;2023-06-14T02:30:32;100181.94;;;22.66
76541;BMP280;65385;55.772;37.658;2023-06-14T02:31:33;100186.59;;;22.69
76541;BMP280;65385;55.772;37.658;2023-06-14T02:32:34;100178.13;;;22.67
76541;BMP280;65385;55.772;37.658;2023-06-14T02:33:35;100181.41;;;22.73
76541;BMP280;65385;55.772;37.658;2023-06-14T02:34:36;100185.25;;;22.75
76541;BMP280;65385;55.772;37.658;2023-06-14T02:35:37;100186.34;;;22.74
76541;BMP280;65385;55.772;37.658;2023-06-14T02:36:38;100190.84;;;22.70
76541;BMP280;65385;55.772;37.658;2023-06-14T02:37:42;100183.28;;;22.72
76541;BMP280;65385;55.772;37.658;2023-06-14T02:38:43;100186.59;;;22.57
76541;BMP280;65385;55.772;37.658;2023-06-14T02:39:43;100178.59;;;22.57
76541;BMP280;65385;55.772;37.658;2023-06-14T02:40:44;100187.56;;;22.40
76541;BMP280;65385;55.772;37.658;2023-06-14T02:41:45;100186.47;;;22.41
76541;BMP280;65385;55.772;37.658;2023-06-14T02:42:45;100188.03;;;22.42
76541;BMP280;65385;55.772;37.658;2023-06-14T02:43:46;100194.47;;;22.53
76541;BMP280;65385;55.772;37.658;2023-06-14T02:44:47;100189.91;;;22.54
76541;BMP280;65385;55.772;37.658;2023-06-14T02:45:51;100191.03;;;22.53
76541;BMP280;65385;55.772;37.658;2023-06-14T02:46:53;100190.38;;;22.56
76541;BMP280;65385;55.772;37.658;2023-06-14T02:47:54;100189.19;;;22.66
76541;BMP280;65385;55.772;37.658;2023-06-14T02:48:56;100195.06;;;22.71
76541;BMP280;65385;55.772;37.658;2023-06-14T02:49:57;100189.94;;;22.78
76541;BMP280;65385;55.772;37.658;2023-06-14T02:50:58;100197.94;;;22.78
76541;BMP280;65385;55.772;37.658;2023-06-14T02:51:58;100196.84;;;22.79
76541;BMP280;65385;55.772;37.658;2023-06-14T02:52:59;100198.50;;;22.84
76541;BMP280;65385;55.772;37.658;2023-06-14T02:54:00;100200.38;;;22.71
76541;BMP280;65385;55.772;37.658;2023-06-14T02:55:01;100189.59;;;22.56
76541;BMP280;65385;55.772;37.658;2023-06-14T02:56:01;100196.69;;;22.51
76541;BMP280;65385;55.772;37.658;2023-06-14T02:57:04;100198.69;;;22.42
76541;BMP280;65385;55.772;37.658;2023-06-14T02:58:08;100193.38;;;22.42
76541;BMP280;65385;55.772;37.658;2023-06-14T02:59:08;100199.72;;;22.50
76541;BMP280;65385;55.772;37.658;2023-06-14T03:00:11;100200.72;;;22.58
76541;BMP280;65385;55.772;37.658;2023-06-14T03:01:16;100203.41;;;22.70
76541;BMP280;65385;55.772;37.658;2023-06-14T03:02:17;100200.84;;;22.85
76541;BMP280;65385;55.772;37.658;2023-06-14T03:03:18;100197.50;;;22.88
76541;BMP280;65385;55.772;37.658;2023-06-14T03:04:25;100205.84;;;22.99
76541;BMP280;65385;55.772;37.658;2023-06-14T03:05:27;100204.53;;;22.93
76541;BMP280;65385;55.772;37.658;2023-06-14T03:06:31;100210.75;;;22.85
76541;BMP280;65385;55.772;37.658;2023-06-14T03:07:33;100201.19;;;22.72
76541;BMP280;65385;55.772;37.658;2023-06-14T03:08:35;100204.41;;;22.65
76541;BMP280;65385;55.772;37.658;2023-06-14T03:09:43;100200.81;;;22.61
76541;BMP280;65385;55.772;37.658;2023-06-14T03:10:46;100207.97;;;22.69
76541;BMP280;65385;55.772;37.658;2023-06-14T03:11:47;100204.59;;;22.60
76541;BMP280;65385;55.772;37.658;2023-06-14T03:12:48;100209.03;;;22.56
76541;BMP280;65385;55.772;37.658;2023-06-14T03:13:51;100199.94;;;22.57
76541;BMP280;65385;55.772;37.658;2023-06-14T03:14:52;100207.25;;;22.60
76541;BMP280;65385;55.772;37.658;2023-06-14T03:15:56;100206.25;;;22.52
76541;BMP280;65385;55.772;37.658;2023-06-14T03:16:57;100202.16;;;22.55
76541;BMP280;65385;55.772;37.658;2023-06-14T03:17:59;100207.03;;;22.53
76541;BMP280;65385;55.772;37.658;2023-06-14T03:19:00;100197.59;;;22.56
76541;BMP280;65385;55.772;37.658;2023-06-14T03:20:05;100201.50;;;22.70
76541;BMP280;65385;55.772;37.658;2023-06-14T03:21:06;100207.75;;;22.86
76541;BMP280;65385;55.772;37.658;2023-06-14T03:22:07;100203.50;;;22.97
76541;BMP280;65385;55.772;37.658;2023-06-14T03:23:09;100205.28;;;23.05
76541;BMP280;65385;55.772;37.658;2023-06-14T03:24:10;100210.94;;;23.16
76541;BMP280;65385;55.772;37.658;2023-06-14T03:25:10;100207.69;;;23.35
76541;BMP280;65385;55.772;37.658;2023-06-14T03:26:14;100213.06;;;23.23
76541;BMP280;65385;55.772;37.658;2023-06-14T03:27:18;100210.75;;;23.09
76541;BMP280;65385;55.772;37.658;2023-06-14T03:28:20;100203.06;;;23.07
76541;BMP280;65385;55.772;37.658;2023-06-14T03:29:21;100200.59;;;23.02
76541;BMP280;65385;55.772;37.658;2023-06-14T03:30:22;100203.72;;;23.04
76541;BMP280;65385;55.772;37.658;2023-06-14T03:31:25;100204.72;;;23.12
76541;BMP280;65385;55.772;37.658;2023-06-14T03:32:26;100199.69;;;23.23
76541;BMP280;65385;55.772;37.658;2023-06-14T03:33:27;100199.94;;;23.30
76541;BMP280;65385;55.772;37.658;2023-06-14T03:34:29;100196.31;;;23.50
76541;BMP280;65385;55.772;37.658;2023-06-14T03:35:29;100197.81;;;23.63
76541;BMP280;65385;55.772;37.658;2023-06-14T03:36:30;100200.59;;;23.66
76541;BMP280;65385;55.772;37.658;2023-06-14T03:37:31;100199.63;;;23.59
76541;BMP280;65385;55.772;37.658;2023-06-14T03:38:32;100194.38;;;23.62
76541;BMP280;65385;55.772;37.658;2023-06-14T03:39:32;100197.53;;;23.80
76541;BMP280;65385;55.772;37.658;2023-06-14T03:40:33;100201.75;;;23.81
76541;BMP280;65385;55.772;37.658;2023-06-14T03:41:36;100200.66;;;23.82
76541;BMP280;65385;55.772;37.658;2023-06-14T03:42:37;100196.44;;;23.69
76541;BMP280;65385;55.772;37.658;2023-06-14T03:43:39;100196.38;;;23.65
76541;BMP280;65385;55.772;37.658;2023-06-14T03:44:40;100200.63;;;23.54
76541;BMP280;65385;55.772;37.658;2023-06-14T03:45:40;100192.06;;;23.49
76541;BMP280;65385;55.772;37.658;2023-06-14T03:46:42;100205.13;;;23.38
76541;BMP280;65385;55.772;37.658;2023-06-14T03:47:42;100195.97;;;23.51
76541;BMP280;65385;55.772;37.658;2023-06-14T03:48:43;100202.72;;;23.61
76541;BMP280;65385;55.772;37.658;2023-06-14T03:49:44;100199.03;;;23.65
76541;BMP280;65385;55.772;37.658;2023-06-14T03:50:45;100197.66;;;23.71
76541;BMP280;65385;55.772;37.658;2023-06-14T03:51:45;100197.03;;;23.90
76541;BMP280;65385;55.772;37.658;2023-06-14T03:52:53;100200.00;;;24.01
76541;BMP280;65385;55.772;37.658;2023-06-14T03:53:54;100199.28;;;23.88
76541;BMP280;65385;55.772;37.658;2023-06-14T03:54:56;100199.63;;;23.87
76541;BMP280;65385;55.772;37.658;2023-06-14T03:55:57;100201.81;;;23.69
76541;BMP280;65385;55.772;37.658;2023-06-14T03:57:05;100197.53;;;23.80
76541;BMP280;65385;55.772;37.658;2023-06-14T03:58:06;100201.22;;;23.75
76541;BMP280;65385;55.772;37.658;2023-06-14T03:59:07;100202.19;;;23.83
76541;BMP280;65385;55.772;37.658;2023-06-14T04:00:09;100200.13;;;23.92
76541;BMP280;65385;55.772;37.658;2023-06-14T04:01:15;100203.19;;;24.06
76541;BMP280;65385;55.772;37.658;2023-06-14T04:02:16;100201.16;;;24.15
76541;BMP280;65385;55.772;37.658;2023-06-14T04:03:17;100203.22;;;24.22
76541;BMP280;65385;55.772;37.658;2023-06-14T04:04:20;100198.47;;;24.31
76541;BMP280;65385;55.772;37.658;2023-06-14T04:05:22;100205.72;;;24.30
76541;BMP280;65385;55.772;37.658;2023-06-14T04:06:27;100208.31;;;24.42
76541;BMP280;65385;55.772;37.658;2023-06-14T04:07:33;100209.78;;;24.55
76541;BMP280;65385;55.772;37.658;2023-06-14T04:08:40;100209.94;;;24.78
76541;BMP280;65385;55.772;37.658;2023-06-14T04:09:41;100210.78;;;24.98
76541;BMP280;65385;55.772;37.658;2023-06-14T04:10:42;100212.13;;;25.07
76541;BMP280;65385;55.772;37.658;2023-06-14T04:11:43;100208.09;;;25.33
76541;BMP280;65385;55.772;37.658;2023-06-14T04:12:43;100211.88;;;25.51
76541;BMP280;65385;55.772;37.658;2023-06-14T04:13:44;100208.06;;;25.71
76541;BMP280;65385;55.772;37.658;2023-06-14T04:14:45;100201.72;;;26.02
76541;BMP280;65385;55.772;37.658;2023-06-14T04:15:46;100202.22;;;26.07
76541;BMP280;65385;55.772;37.658;2023-06-14T04:16:51;100200.22;;;26.27
76541;BMP280;65385;55.772;37.658;2023-06-14T04:17:54;100197.78;;;26.41
76541;BMP280;65385;55.772;37.658;2023-06-14T04:18:58;100193.31;;;26.48
76541;BMP280;65385;55.772;37.658;2023-06-14T04:19:59;100195.16;;;26.71
76541;BMP280;65385;55.772;37.658;2023-06-14T04:21:00;100189.91;;;26.81
76541;BMP280;65385;55.772;37.658;2023-06-14T04:22:01;100195.00;;;26.60
76541;BMP280;65385;55.772;37.658;2023-06-14T04:23:16;100197.47;;;26.72
76541;BMP280;65385;55.772;37.658;2023-06-14T04:24:19;100197.06;;;26.70
76541;BMP280;65385;55.772;37.658;2023-06-14T04:25:22;100197.59;;;26.79
76541;BMP280;65385;55.772;37.658;2023-06-14T04:26:23;100195.09;;;26.93
76541;BMP280;65385;55.772;37.658;2023-06-14T04:27:30;100193.19;;;27.23
76541;BMP280;65385;55.772;37.658;2023-06-14T04:28:36;100202.47;;;27.29
76541;BMP280;65385;55.772;37.658;2023-06-14T04:29:41;100195.66;;;27.06
76541;BMP280;65385;55.772;37.658;2023-06-14T04:30:46;100195.81;;;26.90
76541;BMP280;65385;55.772;37.658;2023-06-14T04:31:49;100194.22;;;26.86
76541;BMP280;65385;55.772;37.658;2023-06-14T04:32:50;100193.94;;;26.68
76541;BMP280;65385;55.772;37.658;2023-06-14T04:33:56;100193.81;;;26.84
76541;BMP280;65385;55.772;37.658;2023-06-14T04:34:57;100198.44;;;27.16
76541;BMP280;65385;55.772;37.658;2023-06-14T04:36:00;100193.19;;;27.23
76541;BMP280;65385;55.772;37.658;2023-06-14T04:37:01;100188.34;;;27.39
76541;BMP280;65385;55.772;37.658;2023-06-14T04:38:08;100189.66;;;27.56
76541;BMP280;65385;55.772;37.658;2023-06-14T04:39:10;100184.13;;;27.79
76541;BMP280;65385;55.772;37.658;2023-06-14T04:40:11;100191.72;;;28.10
76541;BMP280;65385;55.772;37.658;2023-06-14T04:41:12;100187.16;;;28.17
76541;BMP280;65385;55.772;37.658;2023-06-14T04:42:15;100187.97;;;28.25
76541;BMP280;65385;55.772;37.658;2023-06-14T04:43:17;100185.78;;;28.41
76541;BMP280;65385;55.772;37.658;2023-06-14T04:44:19;100188.94;;;28.57
76541;BMP280;65385;55.772;37.658;2023-06-14T04:45:22;100187.81;;;28.58
76541;BMP280;65385;55.772;37.658;2023-06-14T04:46:25;100190.97;;;28.74
76541;BMP280;65385;55.772;37.658;2023-06-14T04:47:29;100185.63;;;28.85
76541;BMP280;65385;55.772;37.658;2023-06-14T04:48:31;100181.41;;;28.87
76541;BMP280;65385;55.772;37.658;2023-06-14T04:49:33;100191.81;;;28.89
76541;BMP280;65385;55.772;37.658;2023-06-14T04:50:34;100188.78;;;28.97
76541;BMP280;65385;55.772;37.658;2023-06-14T04:51:35;100187.63;;;29.13
76541;BMP280;65385;55.772;37.658;2023-06-14T04:52:37;100195.06;;;29.30
76541;BMP280;65385;55.772;37.658;2023-06-14T04:53:39;100195.06;;;29.30
76541;BMP280;65385;55.772;37.658;2023-06-14T04:54:40;100185.06;;;29.48
76541;BMP280;65385;55.772;37.658;2023-06-14T04:55:45;100197.44;;;29.84
76541;BMP280;65385;55.772;37.658;2023-06-14T04:56:46;100188.94;;;30.03
76541;BMP280;65385;55.772;37.658;2023-06-14T04:57:47;100188.13;;;30.31
76541;BMP280;65385;55.772;37.658;2023-06-14T04:58:49;100198.16;;;30.41
76541;BMP280;65385;55.772;37.658;2023-06-14T04:59:50;100190.03;;;30.34
76541;BMP280;65385;55.772;37.658;2023-06-14T05:00:55;100189.66;;;30.42
76541;BMP280;65385;55.772;37.658;2023-06-14T05:02:00;100181.16;;;30.33
76541;BMP280;65385;55.772;37.658;2023-06-14T05:03:00;100180.03;;;30.34
76541;BMP280;65385;55.772;37.658;2023-06-14T05:04:03;100183.50;;;30.17
76541;BMP280;65385;55.772;37.658;2023-06-14T05:05:05;100178.13;;;30.10
76541;BMP280;65385;55.772;37.658;2023-06-14T05:06:08;100174.66;;;30.13
76541;BMP280;65385;55.772;37.658;2023-06-14T05:07:09;100176.91;;;30.22
76541;BMP280;65385;55.772;37.658;2023-06-14T05:08:11;100178.88;;;30.21
76541;BMP280;65385;55.772;37.658;2023-06-14T05:09:13;100190.41;;;30.39
76541;BMP280;65385;55.772;37.658;2023-06-14T05:10:14;100185.75;;;30.54
76541;BMP280;65385;55.772;37.658;2023-06-14T05:11:16;100182.88;;;30.96
76541;BMP280;65385;55.772;37.658;2023-06-14T05:12:20;100169.94;;;31.28
76541;BMP280;65385;55.772;37.658;2023-06-14T05:13:21;100181.09;;;31.34
76541;BMP280;65385;55.772;37.658;2023-06-14T05:14:23;100176.41;;;31.41
76541;BMP280;65385;55.772;37.658;2023-06-14T05:15:25;100184.13;;;31.43
76541;BMP280;65385;55.772;37.658;2023-06-14T05:16:26;100188.03;;;31.35
76541;BMP280;65385;55.772;37.658;2023-06-14T05:17:27;100183.09;;;31.26
76541;BMP280;65385;55.772;37.658;2023-06-14T05:18:31;100186.19;;;31.21
76541;BMP280;65385;55.772;37.658;2023-06-14T05:19:34;100180.84;;;31.11
76541;BMP280;65385;55.772;37.658;2023-06-14T05:20:35;100180.06;;;31.14
76541;BMP280;65385;55.772;37.658;2023-06-14T05:21:37;100181.16;;;31.23
76541;BMP280;65385;55.772;37.658;2023-06-14T05:22:38;100185.34;;;31.31
76541;BMP280;65385;55.772;37.658;2023-06-14T05:23:38;100181.81;;;31.38
76541;BMP280;65385;55.772;37.658;2023-06-14T05:24:39;100179.81;;;31.49
76541;BMP280;65385;55.772;37.658;2023-06-14T05:25:41;100185.47;;;31.69
76541;BMP280;65385;55.772;37.658;2023-06-14T05:26:42;100183.13;;;31.71
76541;BMP280;65385;55.772;37.658;2023-06-14T05:27:43;100189.31;;;31.68
76541;BMP280;65385;55.772;37.658;2023-06-14T05:28:44;100181.16;;;31.75
76541;BMP280;65385;55.772;37.658;2023-06-14T05:29:44;100186.84;;;31.87
76541;BMP280;65385;55.772;37.658;2023-06-14T05:30:45;100184.94;;;31.88
76541;BMP280;65385;55.772;37.658;2023-06-14T05:31:46;100184.94;;;31.88
76541;BMP280;65385;55.772;37.658;2023-06-14T05:32:46;100191.13;;;31.81
76541;BMP280;65385;55.772;37.658;2023-06-14T05:33:47;100186.56;;;31.75
76541;BMP280;65385;55.772;37.658;2023-06-14T05:34:48;100175.78;;;31.71
76541;BMP280;65385;55.772;37.658;2023-06-14T05:35:49;100181.97;;;31.72
76541;BMP280;65385;55.772;37.658;2023-06-14T05:36:50;100184.63;;;31.75
76541;BMP280;65385;55.772;37.658;2023-06-14T05:37:51;100182.03;;;31.65
76541;BMP280;65385;55.772;37.658;2023-06-14T05:38:52;100185.13;;;31.63
76541;BMP280;65385;55.772;37.658;2023-06-14T05:39:57;100178.91;;;31.66
76541;BMP280;65385;55.772;37.658;2023-06-14T05:40:58;100183.13;;;31.71
76541;BMP280;65385;55.772;37.658;2023-06-14T05:41:59;100182.31;;;31.77
76541;BMP280;65385;55.772;37.658;2023-06-14T05:43:00;100185.63;;;31.92
76541;BMP280;65385;55.772;37.658;2023-06-14T05:44:01;100183.22;;;32.38
76541;BMP280;65385;55.772;37.658;2023-06-14T05:45:01;100177.00;;;32.71
76541;BMP280;65385;55.772;37.658;2023-06-14T05:46:02;100180.56;;;32.91
76541;BMP280;65385;55.772;37.658;2023-06-14T05:47:03;100179.09;;;32.87
76541;BMP280;65385;55.772;37.658;2023-06-14T05:48:04;100182.41;;;32.71
76541;BMP280;65385;55.772;37.658;2023-06-14T05:49:04;100189.66;;;32.47